createdAt,value
2019-06-20T00:01:05.355Z,33.67
2019-06-20T00:03:34.727Z,35.43
2019-06-20T00:06:04.450Z,34.73
2019-06-20T00:08:34.229Z,36.63
2019-06-20T00:11:03.980Z,36.80
2019-06-20T00:13:33.354Z,35.90
2019-06-20T00:16:03.486Z,37.83
2019-06-20T00:18:32.827Z,37.13
2019-06-20T00:21:02.289Z,36.43
2019-06-20T00:23:31.957Z,38.17
2019-06-20T00:26:01.348Z,38.77
2019-06-20T00:28:30.688Z,39.67
2019-06-20T00:31:00.151Z,40.30
2019-06-20T00:33:29.907Z,41.70
2019-06-20T00:35:59.511Z,41.07
2019-06-20T00:38:29.249Z,41.13
2019-06-20T00:40:58.503Z,40.97
2019-06-20T00:43:27.796Z,41.50
2019-06-20T00:45:57.077Z,41.07
2019-06-20T00:48:26.771Z,40.80
2019-06-20T00:50:56.108Z,40.47
2019-06-20T00:53:25.456Z,39.43
2019-06-20T00:55:54.926Z,40.37
2019-06-20T00:58:24.557Z,40.63
2019-06-20T01:00:53.846Z,41.63
2019-06-20T01:03:23.233Z,40.80
2019-06-20T01:05:52.989Z,40.43
2019-06-20T01:08:22.669Z,40.87
2019-06-20T01:10:51.930Z,40.60
2019-06-20T01:13:33.080Z,39.20
2019-06-20T01:15:52.608Z,39.30
2019-06-20T01:18:21.960Z,38.23
2019-06-20T01:20:51.396Z,37.60
2019-06-20T01:23:20.648Z,38.00
2019-06-20T01:25:49.960Z,37.97
2019-06-20T01:28:19.152Z,38.20
2019-06-20T01:30:48.408Z,36.30
2019-06-20T01:33:17.601Z,36.70
2019-06-20T01:35:47.674Z,37.60
2019-06-20T01:38:16.829Z,35.37
2019-06-20T01:40:46.078Z,34.93
2019-06-20T01:43:15.643Z,34.73
2019-06-20T01:45:44.923Z,34.80
2019-06-20T01:48:14.408Z,34.30
2019-06-20T01:50:44.322Z,35.73
2019-06-20T01:53:13.637Z,33.47
2019-06-20T01:55:43.288Z,33.10
2019-06-20T01:58:12.635Z,33.03
2019-06-20T02:00:48.110Z,32.70
2019-06-20T02:03:17.887Z,32.03
2019-06-20T02:05:47.196Z,31.23
2019-06-20T02:08:17.068Z,31.33
2019-06-20T02:10:47.116Z,31.47
2019-06-20T02:13:16.500Z,31.83
2019-06-20T02:15:45.784Z,31.23
2019-06-20T02:18:15.097Z,29.53
2019-06-20T02:20:50.118Z,30.97
2019-06-20T02:23:19.604Z,31.23
2019-06-20T02:25:48.968Z,30.63
2019-06-20T02:28:19.234Z,30.33
2019-06-20T02:30:49.114Z,31.13
2019-06-20T02:33:18.346Z,31.33
2019-06-20T02:35:47.669Z,30.30
2019-06-20T02:38:17.187Z,31.10
2019-06-20T02:40:46.717Z,30.57
2019-06-20T02:43:15.880Z,29.50
2019-06-20T02:45:45.218Z,29.80
2019-06-20T02:48:14.432Z,29.07
2019-06-20T02:50:43.656Z,30.57
2019-06-20T02:53:13.501Z,30.13
2019-06-20T02:55:42.637Z,28.30
2019-06-20T02:58:12.177Z,29.10
2019-06-20T03:00:57.584Z,29.30
2019-06-20T03:03:28.181Z,28.90
2019-06-20T03:05:57.764Z,28.77
2019-06-20T03:08:27.397Z,28.77
2019-06-20T03:10:57.298Z,27.43
2019-06-20T03:13:26.837Z,28.23
2019-06-20T03:15:56.458Z,27.27
2019-06-20T03:18:25.674Z,25.73
2019-06-20T03:20:55.148Z,25.10
2019-06-20T03:23:24.368Z,25.87
2019-06-20T03:25:53.542Z,25.73
2019-06-20T03:28:22.714Z,26.00
2019-06-20T03:30:51.918Z,25.07
2019-06-20T03:33:21.143Z,24.17
2019-06-20T03:35:50.357Z,23.10
2019-06-20T03:38:19.546Z,23.37
2019-06-20T03:40:48.799Z,22.97
2019-06-20T03:43:18.329Z,22.60
2019-06-20T03:45:47.569Z,21.50
2019-06-20T03:48:16.910Z,22.37
2019-06-20T03:50:46.414Z,22.07
2019-06-20T03:53:15.934Z,20.93
2019-06-20T03:55:45.428Z,20.80
2019-06-20T03:58:14.911Z,20.50
2019-06-20T04:00:44.781Z,19.97
2019-06-20T04:03:14.521Z,20.50
2019-06-20T04:05:43.799Z,19.60
2019-06-20T04:08:13.026Z,19.90
2019-06-20T04:10:42.213Z,20.00
2019-06-20T04:13:11.433Z,19.83
2019-06-20T04:15:40.627Z,19.03
2019-06-20T04:18:09.857Z,18.93
2019-06-20T04:20:39.124Z,18.70
2019-06-20T04:23:08.425Z,18.90
2019-06-20T04:25:37.696Z,19.30
2019-06-20T04:28:07.231Z,19.27
2019-06-20T04:30:36.519Z,20.27
2019-06-20T04:33:05.725Z,20.53
2019-06-20T04:35:34.986Z,19.37
2019-06-20T04:38:04.215Z,19.23
2019-06-20T04:40:33.411Z,19.17
2019-06-20T04:43:02.566Z,17.33
2019-06-20T04:45:49.245Z,18.80
2019-06-20T04:48:18.918Z,17.20
2019-06-20T04:50:48.164Z,16.30
2019-06-20T04:53:17.355Z,16.13
2019-06-20T04:55:46.505Z,15.90
2019-06-20T04:58:15.773Z,14.70
2019-06-20T05:00:45.068Z,14.77
2019-06-20T05:03:15.050Z,14.93
2019-06-20T05:05:44.360Z,15.30
2019-06-20T05:08:14.069Z,13.50
2019-06-20T05:10:43.427Z,13.37
2019-06-20T05:13:12.843Z,12.87
2019-06-20T05:15:52.043Z,13.33
2019-06-20T05:18:13.367Z,13.93
2019-06-20T05:20:43.032Z,13.83
2019-06-20T05:23:12.424Z,13.27
2019-06-20T05:25:41.871Z,13.50
2019-06-20T05:28:11.729Z,13.07
2019-06-20T05:30:41.452Z,13.60
2019-06-20T05:33:10.817Z,13.50
2019-06-20T05:35:40.565Z,13.13
2019-06-20T05:38:09.963Z,12.83
2019-06-20T05:40:39.342Z,13.23
2019-06-20T05:43:08.685Z,11.97
2019-06-20T05:45:38.115Z,11.80
2019-06-20T05:48:07.670Z,11.80
2019-06-20T05:50:37.551Z,11.13
2019-06-20T05:53:06.923Z,10.87
2019-06-20T05:55:36.251Z,11.10
2019-06-20T05:58:05.709Z,9.30
2019-06-20T06:00:36.244Z,9.10
2019-06-20T06:03:07.124Z,9.20
2019-06-20T06:05:37.161Z,9.50
2019-06-20T06:08:06.535Z,9.70
2019-06-20T06:10:35.666Z,8.47
2019-06-20T06:13:04.835Z,9.90
2019-06-20T06:15:34.446Z,9.50
2019-06-20T06:18:03.702Z,10.07
2019-06-20T06:20:32.896Z,8.97
2019-06-20T06:23:02.462Z,9.47
2019-06-20T06:25:31.931Z,9.50
2019-06-20T06:28:01.237Z,8.80
2019-06-20T06:30:30.844Z,9.33
2019-06-20T06:33:00.016Z,9.00
2019-06-20T06:35:29.307Z,9.37
2019-06-20T06:37:58.561Z,8.87
2019-06-20T06:40:28.430Z,8.67
2019-06-20T06:42:58.095Z,8.27
2019-06-20T06:45:27.306Z,7.83
2019-06-20T06:47:56.479Z,7.97
2019-06-20T06:50:26.050Z,8.13
2019-06-20T06:52:55.601Z,8.33
2019-06-20T06:55:27.499Z,7.97
2019-06-20T06:57:56.196Z,8.00
2019-06-20T07:00:25.350Z,8.10
2019-06-20T07:02:54.674Z,7.67
2019-06-20T07:05:24.254Z,7.97
2019-06-20T07:07:53.428Z,8.03
2019-06-20T07:10:22.902Z,7.90
2019-06-20T07:12:52.409Z,8.50
2019-06-20T07:15:22.188Z,7.33
2019-06-20T07:17:51.437Z,9.03
2019-06-20T07:20:21.148Z,7.93
2019-06-20T07:22:50.483Z,9.27
2019-06-20T07:25:19.718Z,8.97
2019-06-20T07:27:48.951Z,9.10
2019-06-20T07:30:20.430Z,9.57
2019-06-20T07:32:49.607Z,9.57
2019-06-20T07:35:19.067Z,10.57
2019-06-20T07:37:48.910Z,8.80
2019-06-20T07:40:18.216Z,10.87
2019-06-20T07:42:47.456Z,10.00
2019-06-20T07:45:19.711Z,9.17
2019-06-20T07:47:48.969Z,10.37
2019-06-20T07:50:18.150Z,10.13
2019-06-20T07:53:01.428Z,9.97
2019-06-20T07:55:18.217Z,9.83
2019-06-20T07:57:47.493Z,11.17
2019-06-20T08:00:18.571Z,10.43
2019-06-20T08:02:47.843Z,10.03
2019-06-20T08:05:17.948Z,10.33
2019-06-20T08:07:47.163Z,10.37
2019-06-20T08:10:17.265Z,11.93
2019-06-20T08:12:46.434Z,10.93
2019-06-20T08:15:17.431Z,11.67
2019-06-20T08:17:46.953Z,11.20
2019-06-20T08:20:16.772Z,12.37
2019-06-20T08:22:45.963Z,12.47
2019-06-20T08:25:16.025Z,13.10
2019-06-20T08:27:52.092Z,13.00
2019-06-20T08:30:26.667Z,12.40
2019-06-20T08:32:58.124Z,12.90
2019-06-20T08:35:29.351Z,11.93
2019-06-20T08:38:00.998Z,12.17
2019-06-20T08:40:31.908Z,11.60
2019-06-20T08:43:02.194Z,10.37
2019-06-20T08:45:34.095Z,10.23
2019-06-20T08:48:04.611Z,10.13
2019-06-20T08:50:34.146Z,9.47
2019-06-20T08:53:03.745Z,9.43
2019-06-20T08:55:32.943Z,8.80
2019-06-20T08:58:03.358Z,9.87
2019-06-20T09:00:34.170Z,8.50
2019-06-20T09:03:03.979Z,8.57
2019-06-20T09:05:33.271Z,8.30
2019-06-20T09:10:37.508Z,6.90
2019-06-20T09:13:08.570Z,6.03
2019-06-20T09:15:38.731Z,6.07
2019-06-20T09:18:08.720Z,6.43
2019-06-20T09:20:38.437Z,6.17
2019-06-20T09:23:07.794Z,5.13
2019-06-20T09:25:37.092Z,4.93
2019-06-20T09:28:06.847Z,4.57
2019-06-20T09:30:37.059Z,4.37
2019-06-20T09:33:07.068Z,3.67
2019-06-20T09:35:36.429Z,4.23
2019-06-20T09:38:07.885Z,3.60
2019-06-20T09:40:37.244Z,3.33
2019-06-20T09:43:07.735Z,3.33
2019-06-20T09:45:37.732Z,3.87
2019-06-20T09:48:07.052Z,4.17
2019-06-20T09:50:37.134Z,4.27
2019-06-20T09:53:06.434Z,5.17
2019-06-20T09:55:36.332Z,5.00
2019-06-20T09:58:06.078Z,4.97
2019-06-20T10:00:36.764Z,4.67
2019-06-20T10:03:06.354Z,5.13
2019-06-20T10:05:35.866Z,4.50
2019-06-20T10:08:05.430Z,5.30
2019-06-20T10:10:36.377Z,4.47
2019-06-20T10:13:05.629Z,3.93
2019-06-20T10:15:37.483Z,3.40
2019-06-20T10:18:07.051Z,3.73
2019-06-20T10:20:38.807Z,3.70
2019-06-20T10:23:07.903Z,3.73
2019-06-20T10:25:37.350Z,3.60
2019-06-20T10:28:06.891Z,3.17
2019-06-20T10:30:36.074Z,3.47
2019-06-20T10:33:05.737Z,3.80
2019-06-20T10:35:35.131Z,3.37
2019-06-20T10:38:04.397Z,3.20
2019-06-20T10:40:33.661Z,3.50
2019-06-20T10:43:02.903Z,3.47
2019-06-20T10:45:34.123Z,3.50
2019-06-20T10:48:03.301Z,3.53
2019-06-20T10:50:32.775Z,3.57
2019-06-20T10:53:02.678Z,2.87
2019-06-20T10:55:32.341Z,3.50
2019-06-20T10:58:01.851Z,2.33
2019-06-20T11:00:33.994Z,3.10
2019-06-20T11:03:03.532Z,2.77
2019-06-20T11:05:32.747Z,2.80
2019-06-20T11:08:01.919Z,3.27
2019-06-20T11:10:32.254Z,3.10
2019-06-20T11:13:02.057Z,2.80
2019-06-20T11:15:31.721Z,2.87
2019-06-20T11:18:01.265Z,3.00
2019-06-20T11:20:30.859Z,2.97
2019-06-20T11:23:00.009Z,3.17
2019-06-20T11:25:29.553Z,3.80
2019-06-20T11:27:58.763Z,3.83
2019-06-20T11:30:44.583Z,3.03
2019-06-20T11:33:01.112Z,3.43
2019-06-20T11:35:30.653Z,2.87
2019-06-20T11:37:59.880Z,3.13
2019-06-20T11:40:29.962Z,2.80
2019-06-20T11:42:59.792Z,2.70
2019-06-20T11:45:29.394Z,2.87
2019-06-20T11:47:58.672Z,2.80
2019-06-20T11:50:28.034Z,2.10
2019-06-20T11:52:57.588Z,2.40
2019-06-20T11:55:27.001Z,2.20
2019-06-20T11:57:56.385Z,2.37
2019-06-20T12:00:26.393Z,2.30
2019-06-20T12:02:55.630Z,2.50
2019-06-20T12:05:25.024Z,2.53
2019-06-20T12:07:54.280Z,2.13
2019-06-20T12:10:23.538Z,2.53
2019-06-20T12:12:53.222Z,1.87
2019-06-20T12:15:22.956Z,2.10
2019-06-20T12:17:52.621Z,1.53
2019-06-20T12:20:23.126Z,2.03
2019-06-20T12:22:52.377Z,1.83
2019-06-20T12:25:22.617Z,1.50
2019-06-20T12:27:51.889Z,1.97
2019-06-20T12:30:22.064Z,1.83
2019-06-20T12:32:51.337Z,2.27
2019-06-20T12:35:20.608Z,1.67
2019-06-20T12:37:51.652Z,1.40
2019-06-20T12:40:22.518Z,1.70
2019-06-20T12:42:52.383Z,2.00
2019-06-20T12:45:22.487Z,1.70
2019-06-20T12:47:52.080Z,1.70
2019-06-20T12:50:21.382Z,1.40
2019-06-20T12:52:50.970Z,1.53
2019-06-20T12:55:20.564Z,1.70
2019-06-20T12:57:49.891Z,1.77
2019-06-20T13:00:20.152Z,1.70
2019-06-20T13:02:49.737Z,1.50
2019-06-20T13:05:19.655Z,1.60
2019-06-20T13:07:50.145Z,1.60
2019-06-20T13:10:20.487Z,1.50
2019-06-20T13:12:49.714Z,1.50
2019-06-20T13:15:20.591Z,1.50
2019-06-20T13:17:49.805Z,1.40
2019-06-20T13:20:19.770Z,1.40
2019-06-20T13:22:49.550Z,1.40
2019-06-20T13:25:19.066Z,1.50
2019-06-20T13:27:50.660Z,1.50
2019-06-20T13:30:21.372Z,1.40
2019-06-20T13:32:50.655Z,1.37
2019-06-20T13:35:21.008Z,1.50
2019-06-20T13:37:50.331Z,1.53
2019-06-20T13:40:19.668Z,1.83
2019-06-20T13:42:50.307Z,1.77
2019-06-20T13:45:22.984Z,1.20
2019-06-20T13:47:52.229Z,1.30
2019-06-20T13:50:22.043Z,1.10
2019-06-20T13:52:51.542Z,1.40
2019-06-20T13:55:21.327Z,1.00
2019-06-20T13:57:51.068Z,1.07
2019-06-20T14:00:21.548Z,1.33
2019-06-20T14:02:51.617Z,1.03
2019-06-20T14:05:21.331Z,1.00
2019-06-20T14:07:54.279Z,1.00
2019-06-20T14:10:22.005Z,1.07
2019-06-20T14:12:51.151Z,1.13
2019-06-20T14:15:20.537Z,1.23
2019-06-20T14:17:50.168Z,1.30
2019-06-20T14:20:20.809Z,1.20
2019-06-20T14:22:50.283Z,1.20
2019-06-20T14:25:19.711Z,1.03
2019-06-20T14:27:49.326Z,0.90
2019-06-20T14:30:20.097Z,1.20
2019-06-20T14:32:51.046Z,1.20
2019-06-20T14:35:21.750Z,1.27
2019-06-20T14:37:51.829Z,1.10
2019-06-20T14:40:22.590Z,1.30
2019-06-20T14:42:52.373Z,1.00
2019-06-20T14:45:22.654Z,1.07
2019-06-20T14:47:52.661Z,1.10
2019-06-20T14:50:22.246Z,1.30
2019-06-20T14:52:52.145Z,1.30
2019-06-20T14:55:22.532Z,1.50
2019-06-20T14:57:52.491Z,1.30
2019-06-20T15:00:22.603Z,1.00
2019-06-20T15:02:56.171Z,1.50
2019-06-20T15:05:23.156Z,1.30
2019-06-20T15:07:53.939Z,1.20
2019-06-20T15:10:23.909Z,1.17
2019-06-20T15:12:53.786Z,1.50
2019-06-20T15:15:24.116Z,1.10
2019-06-20T15:17:55.862Z,1.00
2019-06-20T15:20:25.517Z,1.10
2019-06-20T15:22:54.840Z,1.10
2019-06-20T15:25:24.042Z,1.30
2019-06-20T15:27:55.319Z,1.00
2019-06-20T15:30:24.783Z,1.07
2019-06-20T15:33:05.804Z,1.13
2019-06-20T15:35:24.943Z,1.20
2019-06-20T15:37:55.643Z,1.00
2019-06-20T15:40:25.356Z,1.07
2019-06-20T15:42:55.443Z,1.07
2019-06-20T15:45:25.771Z,1.20
2019-06-20T15:47:55.003Z,0.90
2019-06-20T15:50:24.517Z,1.37
2019-06-20T15:52:54.203Z,1.57
2019-06-20T15:55:23.802Z,1.10
2019-06-20T15:57:54.294Z,1.00
2019-06-20T16:00:23.853Z,1.10
2019-06-20T16:03:05.864Z,1.30
2019-06-20T16:05:24.598Z,1.10
2019-06-20T16:07:54.304Z,1.13
2019-06-20T16:10:23.470Z,1.17
2019-06-20T16:12:52.713Z,1.20
2019-06-20T16:15:22.226Z,1.20
2019-06-20T16:17:51.502Z,1.43
2019-06-20T16:20:21.064Z,1.10
2019-06-20T16:22:50.380Z,1.00
2019-06-20T16:25:19.897Z,1.10
2019-06-20T16:27:49.194Z,1.13
2019-06-20T16:30:19.190Z,1.37
2019-06-20T16:32:48.723Z,1.57
2019-06-20T16:35:18.894Z,1.27
2019-06-20T16:37:48.153Z,1.00
2019-06-20T16:40:19.287Z,0.80
2019-06-20T16:42:48.793Z,1.20
2019-06-20T16:45:18.248Z,0.90
2019-06-20T16:47:47.953Z,1.00
2019-06-20T16:50:17.344Z,1.40
2019-06-20T16:52:46.528Z,1.10
2019-06-20T16:55:16.047Z,1.20
2019-06-20T16:57:45.295Z,1.03
2019-06-20T17:00:14.843Z,1.10
2019-06-20T17:02:44.079Z,1.10
2019-06-20T17:05:14.408Z,1.10
2019-06-20T17:07:44.002Z,1.10
2019-06-20T17:10:13.538Z,1.20
2019-06-20T17:12:43.863Z,1.47
2019-06-20T17:15:13.803Z,1.17
2019-06-20T17:17:43.034Z,0.90
2019-06-20T17:20:12.701Z,1.10
2019-06-20T17:22:43.586Z,1.10
2019-06-20T17:25:15.119Z,1.40
2019-06-20T17:27:44.371Z,1.00
2019-06-20T17:30:16.195Z,1.30
2019-06-20T17:32:45.365Z,1.00
2019-06-20T17:35:14.909Z,1.10
2019-06-20T17:37:45.018Z,1.13
2019-06-20T17:40:15.519Z,0.90
2019-06-20T17:42:45.479Z,1.03
2019-06-20T17:45:16.126Z,1.10
2019-06-20T17:47:45.721Z,1.20
2019-06-20T17:50:16.011Z,1.27
2019-06-20T17:52:45.372Z,1.43
2019-06-20T17:55:15.343Z,1.20
2019-06-20T17:57:44.982Z,1.30
2019-06-20T18:00:14.975Z,1.10
2019-06-20T18:02:44.801Z,1.00
2019-06-20T18:05:15.439Z,0.90
2019-06-20T18:07:45.006Z,1.00
2019-06-20T18:10:14.825Z,1.10
2019-06-20T18:12:43.981Z,1.00
2019-06-20T18:15:14.850Z,1.10
2019-06-20T18:17:44.005Z,0.90
2019-06-20T18:20:13.936Z,1.30
2019-06-20T18:22:43.484Z,0.90
2019-06-20T18:25:12.937Z,1.10
2019-06-20T18:27:42.084Z,1.37
2019-06-20T18:30:13.502Z,1.23
2019-06-20T18:32:42.695Z,1.00
2019-06-20T18:35:12.060Z,1.00
2019-06-20T18:37:41.228Z,0.97
2019-06-20T18:40:12.185Z,1.00
2019-06-20T18:42:41.386Z,1.00
2019-06-20T18:45:12.861Z,1.03
2019-06-20T18:47:42.032Z,1.40
2019-06-20T18:50:11.553Z,1.40
2019-06-20T18:52:51.573Z,1.20
2019-06-20T18:55:12.174Z,1.20
2019-06-20T18:57:41.406Z,1.00
2019-06-20T19:00:11.535Z,1.17
2019-06-20T19:02:40.770Z,1.10
2019-06-20T19:05:11.199Z,1.20
2019-06-20T19:07:40.468Z,1.07
2019-06-20T19:10:10.787Z,1.30
2019-06-20T19:12:40.426Z,1.20
2019-06-20T19:15:10.181Z,1.50
2019-06-20T19:17:39.407Z,1.20
2019-06-20T19:20:09.091Z,1.20
2019-06-20T19:22:38.371Z,1.47
2019-06-20T19:25:08.968Z,1.20
2019-06-20T19:27:46.324Z,1.20
2019-06-20T19:30:09.632Z,1.27
2019-06-20T19:32:39.037Z,1.20
2019-06-20T19:35:10.450Z,1.63
2019-06-20T19:37:40.073Z,1.30
2019-06-20T19:40:10.053Z,1.40
2019-06-20T19:42:40.135Z,1.43
2019-06-20T19:45:10.256Z,1.83
2019-06-20T19:47:39.818Z,1.40
2019-06-20T19:50:11.035Z,1.90
2019-06-20T19:52:40.365Z,1.53
2019-06-20T19:55:10.445Z,1.10
2019-06-20T19:57:39.992Z,1.40
2019-06-20T20:00:10.009Z,1.60
2019-06-20T20:02:39.209Z,1.40
2019-06-20T20:05:19.146Z,1.57
2019-06-20T20:07:40.979Z,1.83
2019-06-20T20:10:10.897Z,1.40
2019-06-20T20:12:40.094Z,1.27
2019-06-20T20:15:10.065Z,1.73
2019-06-20T20:17:39.348Z,1.20
2019-06-20T20:20:09.420Z,1.20
2019-06-20T20:22:39.037Z,1.43
2019-06-20T20:25:09.724Z,1.30
2019-06-20T20:27:39.013Z,1.70
2019-06-20T20:30:08.351Z,1.73
2019-06-20T20:32:37.966Z,1.30
2019-06-20T20:35:07.272Z,1.50
2019-06-20T20:37:36.897Z,2.20
2019-06-20T20:40:06.774Z,2.20
2019-06-20T20:42:35.966Z,2.67
2019-06-20T20:45:05.787Z,1.97
2019-06-20T20:47:34.965Z,1.67
2019-06-20T20:50:05.225Z,1.63
2019-06-20T20:52:34.425Z,1.97
2019-06-20T20:55:03.968Z,2.10
2019-06-20T20:57:33.835Z,2.00
2019-06-20T21:00:03.136Z,2.50
2019-06-20T21:02:32.624Z,2.23
2019-06-20T21:05:01.831Z,2.70
2019-06-20T21:07:31.699Z,2.03
2019-06-20T21:10:01.315Z,2.03
2019-06-20T21:12:30.748Z,1.80
2019-06-20T21:15:00.067Z,1.80
2019-06-20T21:17:29.575Z,1.67
2019-06-20T21:19:59.063Z,1.50
2019-06-20T21:22:28.597Z,2.00
2019-06-20T21:24:58.034Z,1.53
2019-06-20T21:27:27.195Z,1.40
2019-06-20T21:29:56.775Z,1.70
2019-06-20T21:32:26.016Z,1.50
2019-06-20T21:34:55.304Z,1.63
2019-06-20T21:37:24.931Z,2.13
2019-06-20T21:39:54.436Z,1.50
2019-06-20T21:42:23.577Z,1.30
2019-06-20T21:44:53.036Z,1.87
2019-06-20T21:47:22.472Z,1.63
2019-06-20T21:49:51.628Z,1.63
2019-06-20T21:52:20.824Z,1.53
2019-06-20T21:54:50.341Z,1.70
2019-06-20T21:57:19.583Z,1.50
2019-06-20T21:59:48.750Z,1.33
2019-06-20T22:02:17.978Z,1.77
2019-06-20T22:04:54.379Z,1.50
2019-06-20T22:07:18.024Z,1.80
2019-06-20T22:09:47.264Z,1.60
2019-06-20T22:12:16.772Z,2.30
2019-06-20T22:14:45.986Z,2.07
2019-06-20T22:17:15.204Z,2.20
2019-06-20T22:19:44.373Z,1.80
2019-06-20T22:22:13.891Z,2.37
2019-06-20T22:24:43.150Z,2.40
2019-06-20T22:27:12.405Z,2.07
2019-06-20T22:29:41.679Z,2.10
2019-06-20T22:32:10.988Z,2.03
2019-06-20T22:34:40.158Z,2.33
2019-06-20T22:37:09.357Z,2.20
2019-06-20T22:39:38.775Z,2.00
2019-06-20T22:42:08.010Z,1.90
2019-06-20T22:44:37.785Z,1.90
2019-06-20T22:47:06.998Z,2.10
2019-06-20T22:49:36.155Z,2.20
2019-06-20T22:52:05.514Z,1.87
2019-06-20T22:54:34.967Z,2.50
2019-06-20T22:57:04.181Z,2.20
2019-06-20T22:59:33.784Z,2.23
2019-06-20T23:02:03.036Z,2.60
2019-06-20T23:04:32.196Z,2.00
2019-06-20T23:07:01.493Z,2.17
2019-06-20T23:09:30.725Z,2.43
2019-06-20T23:12:00.175Z,2.87
2019-06-20T23:14:29.764Z,2.77
2019-06-20T23:16:58.910Z,2.57
2019-06-20T23:19:28.051Z,2.67
2019-06-20T23:21:57.217Z,3.00
2019-06-20T23:24:26.382Z,2.90
2019-06-20T23:26:55.626Z,2.80
2019-06-20T23:29:24.780Z,2.63
2019-06-20T23:31:55.606Z,2.70
2019-06-20T23:34:25.108Z,2.50
2019-06-20T23:36:54.300Z,3.37
2019-06-20T23:39:23.472Z,2.70
2019-06-20T23:41:52.984Z,2.60
2019-06-20T23:44:22.233Z,2.90
2019-06-20T23:46:51.838Z,2.77
2019-06-20T23:49:21.623Z,2.63
2019-06-20T23:51:59.049Z,2.80
2019-06-20T23:54:28.288Z,3.10
2019-06-20T23:56:57.603Z,3.13
2019-06-20T23:59:27.272Z,3.50
